Time;durP1;ratioP1;P1;durP2;ratioP2;P2;SDS_P1;SDS_P2;PMS_P1;PMS_P2;Temp;Humidity;BMP_temperature;BMP_pressure;BME280_temperature;BME280_humidity;BME280_pressure;Samples;Min_cycle;Max_cycle;Signal;HPM_P1;HPM_P2
2022/08/23 00:01:47;;;;;;;5.70;4.27;;;11.90;44.40;;;;;;4999372;28;46471;-64
2022/08/23 00:04:17;;;;;;;8.47;4.40;;;11.90;50.40;;;;;;5000111;28;46642;-65
2022/08/23 00:06:44;;;;;;;6.73;4.60;;;11.90;52.70;;;;;;4997064;28;47148;-65
2022/08/23 00:09:10;;;;;;;10.87;4.53;;;11.80;51.60;;;;;;4999727;28;46414;-65
2022/08/23 00:11:43;;;;;;;7.40;4.50;;;11.90;45.00;;;;;;4998981;28;46689;-65
2022/08/23 00:14:16;;;;;;;7.70;4.47;;;11.90;44.60;;;;;;5000156;28;46285;-64
2022/08/23 00:16:43;;;;;;;7.17;4.60;;;11.90;44.70;;;;;;5000216;28;46873;-65
2022/08/23 00:19:11;;;;;;;6.03;4.63;;;11.90;44.90;;;;;;5001004;28;46432;-67
2022/08/23 00:21:38;;;;;;;7.23;4.63;;;12.10;45.30;;;;;;4999334;28;46343;-65
2022/08/23 00:24:06;;;;;;;8.27;4.20;;;11.60;50.80;;;;;;4999827;28;46446;-65
2022/08/23 00:26:50;;;;;;;8.73;4.50;;;11.80;45.10;;;;;;4995792;28;46231;-65
2022/08/23 00:29:17;;;;;;;7.17;4.70;;;;;;;;;;4999768;28;46749;-67
2022/08/23 00:31:42;;;;;;;7.97;4.67;;;11.50;52.90;;;;;;4999140;28;46517;-66
2022/08/23 00:34:08;;;;;;;5.83;4.30;;;;;;;;;;4999754;28;46478;-66
2022/08/23 00:36:34;;;;;;;5.20;4.20;;;;;;;;;;4999565;28;46217;-66
2022/08/23 00:39:00;;;;;;;6.37;4.20;;;12.20;53.80;;;;;;4999835;28;46502;-66
2022/08/23 00:41:26;;;;;;;6.00;4.73;;;11.60;48.20;;;;;;4999898;28;46519;-65
2022/08/23 00:49:39;;;;;;;5.37;3.90;;;11.40;46.60;;;;;;4995738;28;46371;-66
2022/08/23 00:52:23;;;;;;;9.17;4.30;;;11.40;47.10;;;;;;5001153;28;46522;-66
2022/08/23 00:54:51;;;;;;;6.93;4.63;;;11.30;53.40;;;;;;4998735;28;46439;-66
2022/08/23 00:57:18;;;;;;;5.87;4.60;;;11.30;53.70;;;;;;4997783;28;47035;-66
2022/08/23 00:59:44;;;;;;;12.20;3.90;;;11.10;47.40;;;;;;4997508;28;46430;-66
2022/08/23 01:02:10;;;;;;;7.17;4.30;;;;;;;;;;4998163;28;46522;-65
2022/08/23 01:04:47;;;;;;;7.93;4.40;;;11.20;47.40;;;;;;5000354;28;46390;-65
2022/08/23 01:07:25;;;;;;;7.53;4.47;;;11.10;47.60;;;;;;4998563;28;46658;-66
2022/08/23 01:09:55;;;;;;;5.30;3.80;;;11.10;47.60;;;;;;4998900;28;46442;-66
2022/08/23 01:12:29;;;;;;;6.20;4.50;;;11.10;47.90;;;;;;5000488;28;46420;-65
2022/08/23 01:15:01;;;;;;;9.80;4.40;;;11.20;51.50;;;;;;4999342;28;46439;-65
2022/08/23 01:17:40;;;;;;;6.80;4.37;;;11.20;55.00;;;;;;4998979;28;46477;-65
2022/08/23 01:20:12;;;;;;;8.10;5.13;;;11.50;55.40;;;;;;4999331;28;46343;-66
2022/08/23 01:23:00;;;;;;;7.37;4.30;;;11.10;51.70;;;;;;5000260;28;46372;-66
2022/08/23 01:25:29;;;;;;;8.47;4.60;;;11.00;51.80;;;;;;4999870;28;46353;-66
2022/08/23 01:27:56;;;;;;;6.67;4.60;;;;;;;;;;4997968;28;46296;-65
2022/08/23 01:30:31;;;;;;;6.20;4.50;;;10.80;56.40;;;;;;4989742;28;46478;-65
2022/08/23 01:32:59;;;;;;;6.40;4.37;;;10.90;48.40;;;;;;4999711;28;46336;-65
2022/08/23 01:35:48;;;;;;;8.60;4.90;;;11.00;48.40;;;;;;4998786;28;46490;-65
2022/08/23 01:38:14;;;;;;;7.17;4.53;;;11.00;54.50;;;;;;4997893;28;46574;-65
2022/08/23 01:40:41;;;;;;;10.13;4.63;;;11.00;56.00;;;;;;4999348;28;47365;-65
2022/08/23 01:43:08;;;;;;;5.53;3.93;;;11.00;49.30;;;;;;4976609;28;45841;-65
2022/08/23 01:45:34;;;;;;;10.03;4.63;;;11.00;48.30;;;;;;5001597;28;46443;-66
2022/08/23 01:48:01;;;;;;;6.83;4.17;;;11.10;52.10;;;;;;5000173;28;46403;-65
2022/08/23 01:50:28;;;;;;;6.20;4.37;;;10.90;56.00;;;;;;4999691;28;46347;-66
2022/08/23 01:52:54;;;;;;;10.80;5.07;;;11.10;48.60;;;;;;5002279;28;46499;-65
2022/08/23 01:55:20;;;;;;;7.40;5.37;;;;;;;;;;4999182;28;46849;-66
2022/08/23 01:57:49;;;;;;;9.47;4.80;;;11.10;48.20;;;;;;5001381;28;46577;-66
2022/08/23 02:00:15;;;;;;;9.87;5.23;;;11.10;48.70;;;;;;5002726;28;46103;-65
2022/08/23 02:02:41;;;;;;;6.50;4.90;;;11.00;48.80;;;;;;5001326;28;46428;-66
2022/08/23 02:05:08;;;;;;;7.77;4.30;;;11.00;49.70;;;;;;4999994;28;46594;-65
2022/08/23 02:07:34;;;;;;;8.27;4.33;;;11.00;49.80;;;;;;4998663;28;46746;-66
2022/08/23 02:10:00;;;;;;;7.43;3.97;;;;;;;;;;5001620;28;46476;-68
2022/08/23 02:12:26;;;;;;;12.90;4.40;;;;;;;;;;5001550;28;46586;-66
2022/08/23 02:14:51;;;;;;;4.90;3.67;;;10.70;50.40;;;;;;4998002;28;46685;-66
2022/08/23 02:17:17;;;;;;;5.80;4.23;;;;;;;;;;5000927;28;47776;-66
2022/08/23 02:19:44;;;;;;;5.13;3.93;;;10.70;52.80;;;;;;5001451;28;46373;-66
2022/08/23 02:22:10;;;;;;;6.40;3.80;;;10.10;50.60;;;;;;4998781;28;46628;-67
2022/08/23 02:24:43;;;;;;;7.37;4.43;;;10.60;51.00;;;;;;4998967;28;46419;-66
2022/08/23 02:27:10;;;;;;;9.00;4.73;;;10.60;51.70;;;;;;5000453;28;46278;-66
2022/08/23 02:29:37;;;;;;;7.47;3.83;;;10.50;51.70;;;;;;5001036;28;45851;-66
2022/08/23 02:32:02;;;;;;;13.63;4.90;;;10.60;51.00;;;;;;5001368;28;46506;-66
2022/08/23 02:34:30;;;;;;;6.30;4.80;;;10.50;51.10;;;;;;5001064;28;46280;-66
2022/08/23 02:36:56;;;;;;;7.57;4.90;;;10.50;51.60;;;;;;4999892;28;46710;-66
2022/08/23 02:39:22;;;;;;;11.33;4.90;;;10.50;51.90;;;;;;4998315;28;46384;-66
2022/08/23 02:41:48;;;;;;;6.80;4.93;;;10.50;51.10;;;;;;5000547;28;46387;-65
2022/08/23 02:44:14;;;;;;;12.50;4.83;;;10.50;52.10;;;;;;5001318;28;46386;-65
2022/08/23 02:46:41;;;;;;;13.33;5.00;;;10.50;52.10;;;;;;5000295;28;46464;-65
2022/08/23 02:49:07;;;;;;;5.90;4.33;;;10.50;52.10;;;;;;5001709;28;46356;-65
2022/08/23 02:51:34;;;;;;;8.20;5.30;;;10.40;51.00;;;;;;4999240;28;46277;-66
2022/08/23 02:54:00;;;;;;;7.33;4.73;;;10.50;52.10;;;;;;5000202;28;46463;-65
2022/08/23 02:56:26;;;;;;;6.03;4.80;;;10.40;52.00;;;;;;4999592;28;46483;-65
2022/08/23 02:58:51;;;;;;;7.00;5.17;;;10.50;52.10;;;;;;5001452;28;46369;-66
2022/08/23 03:01:31;;;;;;;8.83;5.20;;;10.50;51.10;;;;;;5002223;28;46343;-65
2022/08/23 03:03:57;;;;;;;10.17;4.93;;;10.50;52.10;;;;;;5001029;28;46206;-65
2022/08/23 03:06:23;;;;;;;8.40;5.63;;;10.50;52.10;;;;;;5000779;28;46668;-66
2022/08/23 03:08:49;;;;;;;8.53;5.27;;;10.50;52.10;;;;;;5001237;28;46321;-65
2022/08/23 03:11:17;;;;;;;7.50;5.60;;;10.50;51.10;;;;;;5002006;28;46645;-65
2022/08/23 03:13:46;;;;;;;11.87;5.80;;;10.40;52.00;;;;;;4998365;28;45907;-65
2022/08/23 03:16:13;;;;;;;8.47;5.47;;;10.40;52.00;;;;;;4999654;28;46495;-66
2022/08/23 03:18:39;;;;;;;6.77;5.10;;;10.50;53.30;;;;;;5000739;28;46884;-66
2022/08/23 03:21:06;;;;;;;8.90;5.73;;;10.50;51.10;;;;;;5001329;28;46440;-66
2022/08/23 03:23:33;;;;;;;10.17;6.03;;;10.40;52.10;;;;;;4999314;28;45957;-65
2022/08/23 03:26:01;;;;;;;8.00;5.87;;;10.40;52.00;;;;;;5000787;28;46631;-64
2022/08/23 03:28:27;;;;;;;7.57;5.67;;;10.50;51.10;;;;;;4999718;28;46300;-65
2022/08/23 03:30:53;;;;;;;8.60;5.50;;;;;;;;;;4993650;28;46455;-66
2022/08/23 03:33:19;;;;;;;8.67;5.67;;;10.50;51.20;;;;;;4995678;28;46482;-68
2022/08/23 03:35:44;;;;;;;8.70;5.70;;;10.60;51.20;;;;;;4994932;28;47172;-65
2022/08/23 03:38:11;;;;;;;16.13;6.43;;;10.60;51.20;;;;;;4996036;28;46549;-67
2022/08/23 03:40:37;;;;;;;8.00;5.90;;;10.60;51.30;;;;;;4995929;28;46439;-66
2022/08/23 03:43:03;;;;;;;7.90;5.77;;;10.50;51.10;;;;;;4995458;28;46976;-64
2022/08/23 03:45:29;;;;;;;10.30;6.40;;;10.60;51.10;;;;;;4995559;28;46529;-66
2022/08/23 03:47:55;;;;;;;8.87;5.80;;;10.60;51.20;;;;;;4995247;28;46415;-67
2022/08/23 03:50:20;;;;;;;10.00;6.60;;;10.60;51.60;;;;;;4995562;28;46443;-66
2022/08/23 03:52:46;;;;;;;9.10;6.97;;;10.60;51.60;;;;;;4995924;28;46646;-67
2022/08/23 03:55:14;;;;;;;11.87;6.43;;;10.70;51.40;;;;;;4992623;28;46976;-67
2022/08/23 03:57:40;;;;;;;9.03;5.97;;;10.70;51.70;;;;;;4995378;28;46504;-66
2022/08/23 04:00:10;;;;;;;10.07;6.83;;;10.60;52.00;;;;;;4996516;28;46427;-67
2022/08/23 04:02:36;;;;;;;12.07;6.23;;;;;;;;;;4996079;28;46616;-65
2022/08/23 04:05:03;;;;;;;8.80;6.73;;;10.70;52.40;;;;;;4991888;28;46459;-66
2022/08/23 04:07:28;;;;;;;9.27;6.40;;;10.70;52.70;;;;;;4995088;28;46425;-67
2022/08/23 04:09:55;;;;;;;13.17;6.70;;;;;;;;;;4995603;28;46298;-67
2022/08/23 04:12:22;;;;;;;10.00;6.70;;;;;;;;;;4995846;28;45993;-67
2022/08/23 04:14:47;;;;;;;8.73;5.90;;;10.70;53.30;;;;;;4993328;28;46735;-68
2022/08/23 04:17:14;;;;;;;7.77;6.27;;;10.70;53.20;;;;;;4995020;28;46479;-67
2022/08/23 04:19:40;;;;;;;9.57;6.63;;;10.70;53.50;;;;;;4995623;28;46613;-67
2022/08/23 04:22:11;;;;;;;9.73;7.07;;;10.70;53.50;;;;;;4995065;28;46613;-68
2022/08/23 04:24:38;;;;;;;8.63;5.87;;;10.70;53.80;;;;;;4999313;28;46510;-66
2022/08/23 04:27:04;;;;;;;8.63;6.53;;;10.80;53.90;;;;;;4999021;28;46403;-66
2022/08/23 04:29:30;;;;;;;11.60;6.63;;;10.80;53.90;;;;;;5000315;28;46544;-66
2022/08/23 04:31:56;;;;;;;7.63;5.53;;;;;;;;;;5000622;28;46567;-66
2022/08/23 04:34:22;;;;;;;9.07;5.67;;;10.90;53.80;;;;;;5000506;28;46444;-66
2022/08/23 04:36:48;;;;;;;13.30;5.87;;;10.90;53.90;;;;;;4999689;28;46455;-67
2022/08/23 04:39:15;;;;;;;8.77;5.57;;;10.90;53.80;;;;;;5000237;28;46512;-68
2022/08/23 04:44:25;;;;;;;7.73;5.60;;;;;;;;;;5000037;28;46671;-67
2022/08/23 04:46:51;;;;;;;12.17;4.90;;;10.90;53.90;;;;;;4999999;28;46032;-67
2022/08/23 04:49:17;;;;;;;7.80;5.50;;;10.90;54.20;;;;;;5000512;28;45928;-67
2022/08/23 04:51:43;;;;;;;8.70;4.83;;;10.80;54.20;;;;;;5001083;28;46427;-68
2022/08/23 04:54:10;;;;;;;9.43;5.20;;;10.80;54.20;;;;;;5000159;28;47301;-67
2022/08/23 04:56:36;;;;;;;10.43;5.47;;;10.90;54.00;;;;;;4997477;28;45778;-67
2022/08/23 04:59:02;;;;;;;6.90;5.00;;;10.90;53.90;;;;;;5000587;28;46386;-68
2022/08/23 05:01:28;;;;;;;7.90;5.20;;;;;;;;;;4999861;28;46323;-67
2022/08/23 05:03:54;;;;;;;9.30;5.10;;;;;;;;;;4998836;28;47237;-68
2022/08/23 05:06:20;;;;;;;8.90;5.70;;;11.10;53.60;;;;;;4998412;28;46189;-67
2022/08/23 05:08:46;;;;;;;15.10;4.63;;;11.20;53.20;;;;;;4999309;28;46473;-67
2022/08/23 05:11:12;;;;;;;8.47;4.83;;;11.30;53.20;;;;;;4998148;28;46533;-66
2022/08/23 05:13:38;;;;;;;6.77;4.57;;;11.40;53.20;;;;;;4997654;28;46535;-67
2022/08/23 05:16:04;;;;;;;10.33;5.00;;;11.40;52.70;;;;;;4997795;28;46391;-67
2022/08/23 05:18:31;;;;;;;8.53;4.53;;;;;;;;;;5000299;28;46664;-66
2022/08/23 05:20:56;;;;;;;6.80;5.43;;;11.70;52.20;;;;;;5002359;28;47019;-67
2022/08/23 05:23:22;;;;;;;8.80;4.97;;;;;;;;;;5001482;28;47069;-67
2022/08/23 05:25:48;;;;;;;7.00;4.23;;;;;;;;;;5003131;28;46454;-66
2022/08/23 05:28:42;;;;;;;10.80;4.20;;;15.10;49.40;;;;;;5003421;28;46354;-67
2022/08/23 05:31:19;;;;;;;4.50;3.53;;;16.20;47.40;;;;;;5002697;28;46344;-68
2022/08/23 05:33:46;;;;;;;6.03;4.70;;;17.10;44.70;;;;;;4999873;28;46524;-67
2022/08/23 05:36:14;;;;;;;5.90;3.60;;;18.00;44.00;;;;;;5003201;28;46384;-67
2022/08/23 05:38:40;;;;;;;6.97;3.93;;;18.80;42.20;;;;;;5002770;28;46404;-68
2022/08/23 05:41:06;;;;;;;5.40;3.10;;;19.40;40.50;;;;;;5003280;28;46507;-68
2022/08/23 05:43:32;;;;;;;4.37;3.40;;;20.20;38.60;;;;;;4997500;28;46233;-69
2022/08/23 05:46:09;;;;;;;5.70;3.20;;;20.60;37.30;;;;;;5002712;28;46403;-68
2022/08/23 05:48:36;;;;;;;5.00;3.40;;;21.20;35.40;;;;;;5001483;28;46610;-68
2022/08/23 05:51:16;;;;;;;5.80;3.27;;;21.60;33.40;;;;;;5003765;28;46718;-68
2022/08/23 05:53:42;;;;;;;7.70;3.80;;;21.90;31.90;;;;;;4998683;28;47135;-68
2022/08/23 05:56:17;;;;;;;7.70;3.53;;;22.10;30.80;;;;;;5003439;28;46340;-69
2022/08/23 05:58:43;;;;;;;5.60;3.20;;;22.20;29.60;;;;;;5002707;28;46266;-68
2022/08/23 06:01:10;;;;;;;5.10;3.47;;;22.40;28.70;;;;;;4998940;28;46888;-68
2022/08/23 06:03:36;;;;;;;6.83;3.20;;;22.70;27.90;;;;;;5001271;28;46343;-68
2022/08/23 06:06:03;;;;;;;6.73;3.43;;;23.10;26.80;;;;;;5001916;28;46351;-69
2022/08/23 06:08:28;;;;;;;7.33;3.30;;;23.30;26.40;;;;;;5002067;28;46510;-67
2022/08/23 06:11:10;;;;;;;5.70;3.13;;;23.60;25.60;;;;;;4999712;28;46484;-68
2022/08/23 06:13:41;;;;;;;7.30;3.47;;;23.90;25.00;;;;;;4999552;28;46056;-67
2022/08/23 06:16:07;;;;;;;6.40;2.70;;;;;;;;;;5001910;28;45815;-67
2022/08/23 06:18:33;;;;;;;5.33;2.73;;;24.10;24.30;;;;;;5002091;28;46508;-68
2022/08/23 06:21:04;;;;;;;7.50;3.70;;;24.30;22.90;;;;;;5000478;28;46513;-68
2022/08/23 06:23:29;;;;;;;8.10;3.67;;;24.20;21.80;;;;;;5000600;28;46589;-68
2022/08/23 06:25:55;;;;;;;5.33;3.23;;;24.10;20.40;;;;;;5001907;28;46295;-68
2022/08/23 06:28:21;;;;;;;5.17;3.17;;;23.50;20.80;;;;;;4983667;28;46321;-68
2022/08/23 06:30:47;;;;;;;5.63;3.50;;;;;;;;;;5000012;28;46489;-68
2022/08/23 06:33:13;;;;;;;8.30;3.50;;;;;;;;;;5000609;28;46447;-68
2022/08/23 06:35:40;;;;;;;5.40;3.50;;;;;;;;;;4999702;28;46447;-68
2022/08/23 06:38:06;;;;;;;9.20;3.43;;;20.20;27.70;;;;;;5002570;28;46405;-69
2022/08/23 06:40:34;;;;;;;9.80;4.13;;;21.00;25.40;;;;;;4999323;28;46215;-67
2022/08/23 06:43:00;;;;;;;7.33;3.77;;;21.90;22.90;;;;;;5001528;28;47215;-68
2022/08/23 06:45:26;;;;;;;9.03;3.70;;;22.40;22.30;;;;;;5001846;28;46449;-67
2022/08/23 06:47:52;;;;;;;9.00;4.00;;;21.50;23.80;;;;;;5002201;28;46440;-67
2022/08/23 06:50:18;;;;;;;8.70;4.33;;;20.70;25.70;;;;;;5001664;28;46557;-67
2022/08/23 06:52:47;;;;;;;6.10;3.87;;;20.10;27.30;;;;;;5000001;28;46928;-68
2022/08/23 06:55:12;;;;;;;7.70;4.60;;;19.70;28.20;;;;;;4999238;28;46349;-68
2022/08/23 06:57:38;;;;;;;9.43;4.60;;;19.60;29.00;;;;;;5003210;28;46405;-68
2022/08/23 07:00:05;;;;;;;10.70;4.40;;;19.50;29.50;;;;;;5002328;28;46387;-68
2022/08/23 07:02:31;;;;;;;8.57;4.30;;;19.60;29.60;;;;;;5001223;28;46257;-68
2022/08/23 07:04:57;;;;;;;10.83;4.10;;;;;;;;;;5002343;28;46489;-67
2022/08/23 07:07:22;;;;;;;5.80;3.70;;;19.60;29.90;;;;;;5000605;28;46392;-67
2022/08/23 07:09:48;;;;;;;7.00;3.97;;;;;;;;;;5001590;28;46395;-67
2022/08/23 07:12:14;;;;;;;7.60;4.57;;;19.70;30.40;;;;;;5002067;28;46534;-67
2022/08/23 07:14:41;;;;;;;9.13;4.30;;;19.70;30.20;;;;;;5001259;28;46379;-68
2022/08/23 07:17:08;;;;;;;7.63;4.13;;;19.80;30.00;;;;;;5001187;28;45903;-68
2022/08/23 07:19:35;;;;;;;6.87;4.40;;;20.00;30.10;;;;;;5001297;28;46368;-69
2022/08/23 07:22:02;;;;;;;11.27;4.40;;;20.10;30.00;;;;;;5001647;28;46436;-68
2022/08/23 07:24:30;;;;;;;12.87;5.87;;;20.20;30.00;;;;;;5000333;28;46352;-69
2022/08/23 07:26:56;;;;;;;6.90;4.40;;;;;;;;;;5001065;28;45844;-68
2022/08/23 07:29:22;;;;;;;6.67;4.27;;;20.50;29.80;;;;;;5001218;28;46571;-67
2022/08/23 07:31:51;;;;;;;10.53;4.20;;;20.70;29.80;;;;;;5000989;28;47444;-67
2022/08/23 07:34:19;;;;;;;7.63;4.57;;;20.80;29.90;;;;;;5000432;28;45920;-67
2022/08/23 07:36:47;;;;;;;7.00;4.00;;;20.80;29.50;;;;;;4999437;28;46498;-68
2022/08/23 07:39:14;;;;;;;11.83;4.53;;;21.00;29.20;;;;;;4999747;28;46462;-68
2022/08/23 07:41:40;;;;;;;10.43;4.40;;;21.00;29.20;;;;;;5001947;28;46496;-67
2022/08/23 07:44:08;;;;;;;6.03;4.37;;;21.00;29.20;;;;;;5001731;28;46423;-68
2022/08/23 07:46:36;;;;;;;9.27;4.37;;;21.10;29.30;;;;;;5001072;28;46431;-67
2022/08/23 07:49:03;;;;;;;8.87;3.77;;;21.20;29.30;;;;;;4983376;28;45912;-69
2022/08/23 07:51:32;;;;;;;7.93;4.30;;;21.30;28.80;;;;;;5000025;28;46217;-67
2022/08/23 07:53:59;;;;;;;10.70;4.47;;;21.30;28.50;;;;;;4974116;28;46321;-67
2022/08/23 07:56:25;;;;;;;14.00;4.80;;;21.50;28.40;;;;;;4999378;28;46443;-66
2022/08/23 07:58:51;;;;;;;11.20;3.97;;;21.50;28.30;;;;;;4982945;28;46468;-68
2022/08/23 08:01:36;;;;;;;7.30;3.97;;;21.60;28.10;;;;;;5000939;28;46636;-67
2022/08/23 08:04:03;;;;;;;9.70;4.57;;;21.60;27.80;;;;;;5001219;28;46427;-68
2022/08/23 08:06:35;;;;;;;8.13;4.37;;;21.70;27.90;;;;;;4999974;28;46414;-68
2022/08/23 08:09:01;;;;;;;8.77;3.80;;;21.80;27.50;;;;;;5001637;28;45861;-67
2022/08/23 08:11:30;;;;;;;10.80;4.07;;;21.90;27.30;;;;;;5000345;28;46517;-67
2022/08/23 08:13:56;;;;;;;8.37;4.93;;;22.00;26.70;;;;;;4999732;28;46371;-67
2022/08/23 08:16:28;;;;;;;6.80;3.93;;;22.10;26.50;;;;;;5001663;28;46845;-68
2022/08/23 08:18:56;;;;;;;7.00;3.50;;;22.30;26.20;;;;;;4975418;28;46429;-68
2022/08/23 08:21:22;;;;;;;10.10;3.50;;;22.30;26.00;;;;;;5000266;28;46435;-68
2022/08/23 08:23:48;;;;;;;7.10;3.80;;;;;;;;;;5001659;28;46448;-67
2022/08/23 08:26:14;;;;;;;8.33;3.30;;;22.50;25.50;;;;;;5000034;28;45885;-68
2022/08/23 08:28:41;;;;;;;5.77;3.17;;;;;;;;;;5001428;28;46374;-67
2022/08/23 08:31:07;;;;;;;5.60;3.07;;;22.70;25.30;;;;;;4998855;28;46431;-67
2022/08/23 08:33:33;;;;;;;5.70;2.90;;;22.80;25.40;;;;;;4999857;28;45797;-68
2022/08/23 08:35:59;;;;;;;7.63;4.00;;;22.80;25.30;;;;;;4999464;28;46293;-67
2022/08/23 08:38:25;;;;;;;6.10;3.43;;;22.70;25.20;;;;;;4999839;28;46682;-68
2022/08/23 08:41:10;;;;;;;14.03;3.33;;;22.80;24.70;;;;;;4999405;28;46336;-67
2022/08/23 08:43:54;;;;;;;7.10;3.57;;;23.00;24.80;;;;;;4998788;28;46425;-67
2022/08/23 08:46:37;;;;;;;12.93;3.00;;;23.00;24.40;;;;;;4999060;28;46383;-67
2022/08/23 08:49:06;;;;;;;13.33;3.10;;;23.10;24.50;;;;;;5000511;28;46376;-67
2022/08/23 08:52:08;;;;;;;8.33;2.90;;;23.10;23.80;;;;;;4997909;28;46412;-67
2022/08/23 08:54:36;;;;;;;5.73;2.90;;;23.20;23.80;;;;;;4989298;28;46597;-69
2022/08/23 08:57:03;;;;;;;7.40;2.80;;;23.30;23.90;;;;;;4999991;28;46472;-68
2022/08/23 08:59:57;;;;;;;8.40;2.90;;;23.30;23.80;;;;;;4997743;28;46545;-68
2022/08/23 09:02:28;;;;;;;5.30;2.50;;;23.00;23.00;;;;;;4997278;28;46239;-68
2022/08/23 09:04:53;;;;;;;5.50;2.50;;;23.00;22.70;;;;;;4999662;28;46338;-69
2022/08/23 09:07:36;;;;;;;6.73;3.23;;;22.90;22.50;;;;;;5000140;28;45921;-67
2022/08/23 09:10:18;;;;;;;4.60;2.53;;;22.90;22.20;;;;;;5000264;28;45796;-69
2022/08/23 09:13:04;;;;;;;10.23;3.00;;;23.20;22.10;;;;;;4999518;28;46842;-68
2022/08/23 09:16:07;;;;;;;5.97;2.40;;;23.50;22.20;;;;;;4999844;28;46446;-68
2022/08/23 09:18:35;;;;;;;5.53;3.07;;;23.70;21.50;;;;;;4994761;28;45775;-67
2022/08/23 09:21:04;;;;;;;5.70;2.80;;;23.90;21.40;;;;;;4996263;28;46447;-68
2022/08/23 09:23:42;;;;;;;6.60;2.33;;;23.90;21.40;;;;;;4998096;28;46198;-68
2022/08/23 09:26:24;;;;;;;6.97;2.77;;;23.90;20.90;;;;;;4999966;28;46321;-68
2022/08/23 09:28:54;;;;;;;4.77;2.90;;;24.00;20.50;;;;;;5000302;28;45733;-68
2022/08/23 09:31:43;;;;;;;5.30;3.20;;;23.90;21.00;;;;;;4999169;28;46610;-67
2022/08/23 09:34:16;;;;;;;6.30;3.30;;;24.10;20.30;;;;;;4998918;28;46402;-67
2022/08/23 09:36:41;;;;;;;6.20;3.20;;;24.30;19.80;;;;;;4997361;28;46470;-67
2022/08/23 09:39:24;;;;;;;6.17;3.07;;;24.40;19.50;;;;;;4999725;28;46450;-68
2022/08/23 09:41:50;;;;;;;7.40;2.93;;;24.60;19.30;;;;;;4999837;28;46460;-68
2022/08/23 09:44:32;;;;;;;5.87;2.73;;;24.60;18.80;;;;;;4997871;28;47309;-68
2022/08/23 09:47:06;;;;;;;5.10;3.17;;;24.40;17.90;;;;;;4998234;28;45852;-68
2022/08/23 09:49:31;;;;;;;7.67;3.00;;;24.30;18.10;;;;;;4997122;28;45778;-67
2022/08/23 09:52:16;;;;;;;6.67;3.13;;;24.20;17.50;;;;;;4998314;28;46756;-68
2022/08/23 09:54:42;;;;;;;7.17;2.70;;;24.20;17.40;;;;;;4980150;28;46446;-67
2022/08/23 09:57:09;;;;;;;10.90;3.50;;;24.00;17.00;;;;;;4999314;28;46402;-68
2022/08/23 09:59:42;;;;;;;4.20;3.20;;;23.80;16.10;;;;;;4998016;28;46336;-68
2022/08/23 10:02:23;;;;;;;4.87;3.20;;;23.90;15.80;;;;;;4995767;28;46442;-67
2022/08/23 10:05:00;;;;;;;4.77;3.20;;;24.00;15.90;;;;;;5000848;28;46427;-68
2022/08/23 10:07:51;;;;;;;7.83;2.83;;;24.00;16.00;;;;;;5001882;28;46388;-68
2022/08/23 10:10:17;;;;;;;6.50;2.80;;;24.00;16.40;;;;;;5000282;28;46479;-68
2022/08/23 10:12:44;;;;;;;6.50;2.77;;;24.20;16.30;;;;;;5000772;28;46404;-67
2022/08/23 10:15:09;;;;;;;6.87;2.63;;;24.10;15.80;;;;;;5002703;28;46312;-67
2022/08/23 10:18:09;;;;;;;5.20;2.40;;;24.00;15.30;;;;;;5001322;28;46296;-67
2022/08/23 10:20:44;;;;;;;7.33;2.50;;;23.90;15.10;;;;;;4971430;28;46455;-67
2022/08/23 10:23:34;;;;;;;6.47;2.93;;;23.90;14.90;;;;;;5002010;28;46443;-67
2022/08/23 10:26:00;;;;;;;4.53;2.10;;;24.10;14.70;;;;;;5002857;28;46320;-68
2022/08/23 10:31:46;;;;;;;8.80;2.30;;;24.30;14.20;;;;;;5000527;28;46351;-66
2022/08/23 10:34:12;;;;;;;4.47;2.83;;;;;;;;;;5002019;28;46370;-68
2022/08/23 10:36:45;;;;;;;7.67;2.33;;;24.10;14.60;;;;;;5001438;28;47018;-67
2022/08/23 10:39:23;;;;;;;4.40;2.33;;;24.10;14.70;;;;;;5002314;28;46569;-68
2022/08/23 10:42:11;;;;;;;5.97;2.70;;;24.30;14.70;;;;;;5001906;28;46178;-68
2022/08/23 10:44:48;;;;;;;8.23;2.43;;;24.40;14.10;;;;;;5000211;28;46452;-67
2022/08/23 10:47:36;;;;;;;9.67;2.43;;;24.20;14.50;;;;;;5000319;28;46367;-68
2022/08/23 10:50:09;;;;;;;3.87;2.13;;;24.10;14.50;;;;;;5001916;28;46411;-68
2022/08/23 10:52:51;;;;;;;4.13;2.37;;;24.20;14.00;;;;;;5003207;28;46373;-68
2022/08/23 10:55:43;;;;;;;5.73;2.27;;;24.20;13.40;;;;;;5001623;28;46334;-68
2022/08/23 10:58:27;;;;;;;11.30;3.00;;;24.40;14.30;;;;;;5001710;28;46432;-68
2022/08/23 11:00:54;;;;;;;8.07;2.40;;;24.40;13.80;;;;;;5002193;28;46361;-68
2022/08/23 11:03:40;;;;;;;6.97;2.93;;;24.30;13.50;;;;;;4999712;28;46410;-67
2022/08/23 11:06:34;;;;;;;13.10;3.03;;;24.40;13.60;;;;;;4975270;28;46386;-68
2022/08/23 11:09:23;;;;;;;5.53;2.73;;;24.30;13.60;;;;;;5001950;28;47070;-67
2022/08/23 11:11:49;;;;;;;6.80;2.60;;;;;;;;;;4988338;28;46403;-67
2022/08/23 11:14:43;;;;;;;8.23;2.77;;;24.40;13.60;;;;;;5001913;28;46395;-68
2022/08/23 11:17:24;;;;;;;4.83;2.43;;;24.50;13.60;;;;;;5000220;28;45782;-68
2022/08/23 11:19:55;;;;;;;5.97;2.80;;;;;;;;;;5000031;28;47416;-67
2022/08/23 11:22:56;;;;;;;5.63;2.03;;;24.60;13.90;;;;;;4999668;28;46474;-67
2022/08/23 11:25:24;;;;;;;10.87;2.70;;;24.70;13.80;;;;;;4999812;28;46499;-68
2022/08/23 11:28:10;;;;;;;9.97;2.10;;;24.80;13.60;;;;;;4998615;28;46498;-68
2022/08/23 11:30:44;;;;;;;4.73;2.40;;;24.80;13.30;;;;;;4999985;28;46512;-68
2022/08/23 11:33:23;;;;;;;4.60;1.90;;;25.10;13.50;;;;;;5000196;28;46456;-68
2022/08/23 11:35:52;;;;;;;6.50;2.90;;;25.30;13.90;;;;;;5001830;28;46419;-67
2022/08/23 11:38:46;;;;;;;10.27;2.33;;;25.30;13.60;;;;;;5000531;28;46229;-68
2022/08/23 11:41:29;;;;;;;6.00;2.63;;;25.40;13.70;;;;;;5000422;28;46313;-68
2022/08/23 11:43:55;;;;;;;6.50;2.47;;;25.30;13.70;;;;;;5000001;28;46278;-68
2022/08/23 11:46:26;;;;;;;6.60;2.43;;;25.20;13.70;;;;;;5001888;28;46305;-68
2022/08/23 11:49:01;;;;;;;5.43;2.00;;;25.20;13.60;;;;;;4997736;28;45939;-67
2022/08/23 11:51:42;;;;;;;4.53;2.37;;;25.20;13.30;;;;;;4999856;28;46367;-68
2022/08/23 11:54:30;;;;;;;5.80;2.27;;;25.40;13.00;;;;;;4999998;28;46039;-67
2022/08/23 11:57:29;;;;;;;5.90;2.30;;;25.30;12.70;;;;;;4999906;28;46465;-68
2022/08/23 12:00:09;;;;;;;4.40;1.93;;;25.20;12.00;;;;;;5001493;28;46492;-67
2022/08/23 12:02:46;;;;;;;5.63;2.83;;;25.20;12.40;;;;;;4998385;28;46597;-67
2022/08/23 12:05:19;;;;;;;8.97;2.17;;;25.00;12.40;;;;;;4999568;28;45906;-67
2022/08/23 12:07:51;;;;;;;3.80;2.07;;;25.00;12.30;;;;;;4999261;28;46431;-68
2022/08/23 12:10:42;;;;;;;6.03;2.10;;;25.20;11.90;;;;;;5000692;28;46313;-67
2022/08/23 12:13:20;;;;;;;4.63;2.27;;;25.30;12.20;;;;;;5000003;28;46414;-68
2022/08/23 12:16:04;;;;;;;6.80;2.37;;;25.40;12.10;;;;;;4998979;28;46364;-68
2022/08/23 12:18:57;;;;;;;7.17;2.77;;;25.60;12.10;;;;;;4999348;28;46443;-67
2022/08/23 12:21:29;;;;;;;4.07;2.10;;;25.60;12.20;;;;;;4996824;28;46419;-68
2022/08/23 12:24:22;;;;;;;4.43;1.90;;;25.50;11.80;;;;;;5000386;28;46482;-67
2022/08/23 12:27:22;;;;;;;3.87;2.07;;;25.40;11.20;;;;;;4998895;28;46277;-67
2022/08/23 12:29:48;;;;;;;9.53;2.57;;;25.30;11.20;;;;;;5000818;28;46394;-68
2022/08/23 12:32:13;;;;;;;4.20;1.70;;;25.40;11.00;;;;;;4999636;28;46399;-67
2022/08/23 12:34:59;;;;;;;6.50;2.67;;;25.40;10.40;;;;;;5000853;28;46365;-67
2022/08/23 12:37:55;;;;;;;7.40;2.27;;;25.30;10.50;;;;;;4996216;28;46415;-68
2022/08/23 12:40:30;;;;;;;4.93;2.27;;;25.40;10.30;;;;;;4999098;28;46304;-69
2022/08/23 12:43:27;;;;;;;3.70;2.20;;;25.40;9.80;;;;;;4998781;28;46431;-68
2022/08/23 12:45:56;;;;;;;5.77;2.23;;;25.40;9.90;;;;;;4997369;28;47385;-68
2022/08/23 12:48:30;;;;;;;4.50;2.03;;;25.60;9.80;;;;;;4998024;28;46474;-67
2022/08/23 12:50:56;;;;;;;4.97;2.17;;;;;;;;;;4979441;28;46597;-68
2022/08/23 12:53:37;;;;;;;8.93;2.10;;;25.60;9.60;;;;;;5002051;28;46282;-67
2022/08/23 12:56:21;;;;;;;4.70;2.23;;;25.60;9.30;;;;;;4998465;28;46386;-67
2022/08/23 12:58:55;;;;;;;8.83;2.00;;;25.50;9.00;;;;;;4989766;28;45906;-66
2022/08/23 13:01:32;;;;;;;6.23;2.37;;;25.50;8.90;;;;;;4994741;28;46427;-68
2022/08/23 13:04:08;;;;;;;7.03;2.70;;;25.40;9.00;;;;;;4995576;28;46356;-68
2022/08/23 13:06:49;;;;;;;8.17;2.10;;;25.30;8.60;;;;;;4994359;28;47297;-68
2022/08/23 13:09:23;;;;;;;5.50;2.20;;;25.30;8.10;;;;;;4992413;28;46370;-68
2022/08/23 13:11:51;;;;;;;10.97;2.70;;;25.20;8.30;;;;;;4994100;28;46425;-67
2022/08/23 13:14:39;;;;;;;12.07;2.27;;;25.10;8.60;;;;;;4995757;28;46530;-66
2022/08/23 13:17:30;;;;;;;8.33;2.60;;;25.20;9.10;;;;;;4994777;28;46476;-68
2022/08/23 13:20:02;;;;;;;8.60;2.53;;;25.20;8.70;;;;;;4995446;28;46428;-67
2022/08/23 13:22:32;;;;;;;4.57;2.10;;;25.40;8.90;;;;;;4995477;28;46399;-68
2022/08/23 13:25:06;;;;;;;4.57;2.10;;;25.60;9.00;;;;;;4994747;28;46693;-66
2022/08/23 13:27:36;;;;;;;4.00;2.13;;;25.80;8.60;;;;;;4995007;28;47067;-68
2022/08/23 13:30:08;;;;;;;5.27;2.33;;;25.90;8.90;;;;;;4990811;28;46554;-69